Carl Brashear — NBRS — position and weather

sailwx.info

Track history (hours):
 
Tides and Currents Weather Stations Pressure Air Temp Water Temp Dewpoint Dewpoint Depression Visibility Wind Speed Wind Dir Waves Ship Positions

Carl Brashear

Last reported at 2018-May-18 17:50 UTC. Time now 2018-May-21 22:46 UTC.
Position N 48°03' W 122°38'.

Length 210 m.

MMSI: 368709000.

Date/timePositionNaut miles runAvg speedWind from/ knotsBaromVisibWave heightAir tempDewpointWater temp
2018-May-18 17:50N 48°03' W 122°38'4 9.4
2018-May-18 17:25N 47°59' W 122°35'4 9.0
2018-May-18 17:00N 47°57' W 122°31'4 8.2
2018-May-18 16:30N 47°53' W 122°28'3 6.5
2018-May-18 16:01N 47°51' W 122°25'4 8.3
2018-May-18 15:31N 47°54' W 122°21'5 9.1
2018-May-18 14:59N 47°58' W 122°17'3 4.4
2018-May-18 14:23N 47°59' W 122°14'0 0.1
2018-May-18 13:39N 47°59' W 122°14'  
2018-May-14 19:41N 47°59' W 122°15'0 1.1
2018-May-14 19:30N 47°58' W 122°15'1 2.1
2018-May-14 19:00N 47°58' W 122°16'4 7.3
2018-May-14 18:30N 47°56' W 122°20'713.7
2018-May-14 18:00N 47°50' W 122°25'713.9
2018-May-14 17:30N 47°43' W 122°27'714.2
2018-May-14 17:01N 47°36' W 122°27'4 8.3
2018-May-14 16:31N 47°34' W 122°32'0 0.4
2018-May-14 16:00N 47°34' W 122°32'0 0.0
2018-May-14 15:30N 47°34' W 122°32'0 0.0
2018-May-14 15:00N 47°34' W 122°32'  
2018-May-09 19:28N 47°34' W 122°32'3 5.8
2018-May-09 19:00N 47°35' W 122°28'5 9.8
2018-May-09 18:30N 47°39' W 122°29'611.8
2018-May-09 18:00N 47°45' W 122°27'510.0
2018-May-09 17:30N 47°50' W 122°28'5 9.9
2018-May-09 17:00N 47°55' W 122°30'6 9.9
2018-May-09 16:26N 47°59' W 122°36'  
Track history (hours):
 
Tides and Currents Weather Stations Pressure Air Temp Water Temp Dewpoint Dewpoint Depression Visibility Wind Speed Wind Dir Waves Ship Positions

Carl Brashear

Last reported at 2018-May-18 17:50 UTC. Time now 2018-May-21 22:46 UTC.
Position N 48°03' W 122°38'.

Length 210 m.

MMSI: 368709000.

Date/timePositionNaut miles runAvg speedWind from/ knotsBaromVisibWave heightAir tempDewpointWater temp
2018-May-18 17:50N 48°03' W 122°38'4 9.4
2018-May-18 17:25N 47°59' W 122°35'4 9.0
2018-May-18 17:00N 47°57' W 122°31'4 8.2
2018-May-18 16:30N 47°53' W 122°28'3 6.5
2018-May-18 16:01N 47°51' W 122°25'4 8.3
2018-May-18 15:31N 47°54' W 122°21'5 9.1
2018-May-18 14:59N 47°58' W 122°17'3 4.4
2018-May-18 14:23N 47°59' W 122°14'0 0.1
2018-May-18 13:39N 47°59' W 122°14'  
2018-May-14 19:41N 47°59' W 122°15'0 1.1
2018-May-14 19:30N 47°58' W 122°15'1 2.1
2018-May-14 19:00N 47°58' W 122°16'4 7.3
2018-May-14 18:30N 47°56' W 122°20'713.7
2018-May-14 18:00N 47°50' W 122°25'713.9
2018-May-14 17:30N 47°43' W 122°27'714.2
2018-May-14 17:01N 47°36' W 122°27'4 8.3
2018-May-14 16:31N 47°34' W 122°32'0 0.4
2018-May-14 16:00N 47°34' W 122°32'0 0.0
2018-May-14 15:30N 47°34' W 122°32'0 0.0
2018-May-14 15:00N 47°34' W 122°32'  
2018-May-09 19:28N 47°34' W 122°32'3 5.8
2018-May-09 19:00N 47°35' W 122°28'5 9.8
2018-May-09 18:30N 47°39' W 122°29'611.8
2018-May-09 18:00N 47°45' W 122°27'510.0
2018-May-09 17:30N 47°50' W 122°28'5 9.9
2018-May-09 17:00N 47°55' W 122°30'6 9.9
2018-May-09 16:26N 47°59' W 122°36'  

Dump ship's entire track history